sensor_id;sensor_type;location;lat;lon;timestamp;P1;durP1;ratioP1;P2;durP2;ratioP2
16403;SDS011;8311;50.158;8.642;2022-08-27T00:01:43;9.48;;;6.03;;
16403;SDS011;8311;50.158;8.642;2022-08-27T00:04:39;10.65;;;6.97;;
16403;SDS011;8311;50.158;8.642;2022-08-27T00:07:33;10.50;;;6.72;;
16403;SDS011;8311;50.158;8.642;2022-08-27T00:10:28;12.73;;;7.15;;
16403;SDS011;8311;50.158;8.642;2022-08-27T00:13:21;9.27;;;6.82;;
16403;SDS011;8311;50.158;8.642;2022-08-27T00:16:15;14.60;;;7.22;;
16403;SDS011;8311;50.158;8.642;2022-08-27T00:19:09;9.50;;;6.80;;
16403;SDS011;8311;50.158;8.642;2022-08-27T00:22:03;11.07;;;7.25;;
16403;SDS011;8311;50.158;8.642;2022-08-27T00:24:58;10.52;;;6.47;;
16403;SDS011;8311;50.158;8.642;2022-08-27T00:27:53;12.25;;;6.72;;
16403;SDS011;8311;50.158;8.642;2022-08-27T00:30:47;14.25;;;6.95;;
16403;SDS011;8311;50.158;8.642;2022-08-27T00:33:41;12.45;;;6.53;;
16403;SDS011;8311;50.158;8.642;2022-08-27T00:36:35;11.57;;;6.55;;
16403;SDS011;8311;50.158;8.642;2022-08-27T00:39:29;9.73;;;5.63;;
16403;SDS011;8311;50.158;8.642;2022-08-27T00:42:23;9.90;;;5.75;;
16403;SDS011;8311;50.158;8.642;2022-08-27T00:45:22;8.40;;;5.47;;
16403;SDS011;8311;50.158;8.642;2022-08-27T00:48:16;9.45;;;5.93;;
16403;SDS011;8311;50.158;8.642;2022-08-27T00:51:12;11.07;;;5.80;;
16403;SDS011;8311;50.158;8.642;2022-08-27T00:54:06;11.93;;;5.78;;
16403;SDS011;8311;50.158;8.642;2022-08-27T00:57:03;11.73;;;6.38;;
16403;SDS011;8311;50.158;8.642;2022-08-27T00:59:57;11.13;;;5.65;;
16403;SDS011;8311;50.158;8.642;2022-08-27T01:02:52;8.68;;;5.90;;
16403;SDS011;8311;50.158;8.642;2022-08-27T01:05:46;10.35;;;5.85;;
16403;SDS011;8311;50.158;8.642;2022-08-27T01:08:49;11.13;;;5.63;;
16403;SDS011;8311;50.158;8.642;2022-08-27T01:11:44;10.18;;;5.55;;
16403;SDS011;8311;50.158;8.642;2022-08-27T01:14:38;12.05;;;6.25;;
16403;SDS011;8311;50.158;8.642;2022-08-27T01:17:33;12.50;;;5.95;;
16403;SDS011;8311;50.158;8.642;2022-08-27T01:20:31;7.80;;;5.63;;
16403;SDS011;8311;50.158;8.642;2022-08-27T01:23:30;10.98;;;6.00;;
16403;SDS011;8311;50.158;8.642;2022-08-27T01:26:30;10.73;;;6.05;;
16403;SDS011;8311;50.158;8.642;2022-08-27T01:29:24;10.48;;;5.93;;
16403;SDS011;8311;50.158;8.642;2022-08-27T01:32:17;9.63;;;6.28;;
16403;SDS011;8311;50.158;8.642;2022-08-27T01:35:14;9.65;;;5.78;;
16403;SDS011;8311;50.158;8.642;2022-08-27T01:38:08;8.85;;;5.10;;
16403;SDS011;8311;50.158;8.642;2022-08-27T01:41:21;8.27;;;5.45;;
16403;SDS011;8311;50.158;8.642;2022-08-27T01:44:16;10.13;;;6.40;;
16403;SDS011;8311;50.158;8.642;2022-08-27T01:47:11;9.63;;;5.43;;
16403;SDS011;8311;50.158;8.642;2022-08-27T01:50:10;10.23;;;6.10;;
16403;SDS011;8311;50.158;8.642;2022-08-27T01:53:07;8.00;;;5.28;;
16403;SDS011;8311;50.158;8.642;2022-08-27T01:56:02;10.60;;;5.55;;
16403;SDS011;8311;50.158;8.642;2022-08-27T01:58:55;11.80;;;6.05;;
16403;SDS011;8311;50.158;8.642;2022-08-27T02:01:50;12.73;;;5.70;;
16403;SDS011;8311;50.158;8.642;2022-08-27T02:04:46;10.75;;;5.75;;
16403;SDS011;8311;50.158;8.642;2022-08-27T02:07:42;11.30;;;5.78;;
16403;SDS011;8311;50.158;8.642;2022-08-27T02:10:36;12.63;;;6.25;;
16403;SDS011;8311;50.158;8.642;2022-08-27T02:13:31;13.85;;;6.03;;
16403;SDS011;8311;50.158;8.642;2022-08-27T02:16:24;10.25;;;6.03;;
16403;SDS011;8311;50.158;8.642;2022-08-27T02:19:19;11.48;;;6.00;;
16403;SDS011;8311;50.158;8.642;2022-08-27T02:22:15;11.18;;;6.03;;
16403;SDS011;8311;50.158;8.642;2022-08-27T02:25:09;11.57;;;5.60;;
16403;SDS011;8311;50.158;8.642;2022-08-27T02:28:05;10.23;;;5.88;;
16403;SDS011;8311;50.158;8.642;2022-08-27T02:30:59;12.27;;;5.88;;
16403;SDS011;8311;50.158;8.642;2022-08-27T02:33:52;12.38;;;6.30;;
16403;SDS011;8311;50.158;8.642;2022-08-27T02:36:46;10.15;;;6.13;;
16403;SDS011;8311;50.158;8.642;2022-08-27T02:39:40;9.70;;;6.15;;
16403;SDS011;8311;50.158;8.642;2022-08-27T02:42:36;9.15;;;6.45;;
16403;SDS011;8311;50.158;8.642;2022-08-27T02:45:29;9.55;;;5.57;;
16403;SDS011;8311;50.158;8.642;2022-08-27T02:48:22;9.85;;;5.82;;
16403;SDS011;8311;50.158;8.642;2022-08-27T02:51:16;10.32;;;5.57;;
16403;SDS011;8311;50.158;8.642;2022-08-27T02:54:11;12.25;;;6.22;;
16403;SDS011;8311;50.158;8.642;2022-08-27T02:57:05;13.20;;;6.38;;
16403;SDS011;8311;50.158;8.642;2022-08-27T02:59:58;12.52;;;6.10;;
16403;SDS011;8311;50.158;8.642;2022-08-27T03:02:51;9.88;;;6.05;;
16403;SDS011;8311;50.158;8.642;2022-08-27T03:05:44;11.60;;;6.25;;
16403;SDS011;8311;50.158;8.642;2022-08-27T03:08:38;11.73;;;6.25;;
16403;SDS011;8311;50.158;8.642;2022-08-27T03:11:45;12.75;;;7.30;;
16403;SDS011;8311;50.158;8.642;2022-08-27T03:14:38;13.75;;;6.93;;
16403;SDS011;8311;50.158;8.642;2022-08-27T03:17:32;10.70;;;6.35;;
16403;SDS011;8311;50.158;8.642;2022-08-27T03:20:42;12.63;;;6.18;;
16403;SDS011;8311;50.158;8.642;2022-08-27T03:23:37;11.82;;;6.10;;
16403;SDS011;8311;50.158;8.642;2022-08-27T03:26:32;12.00;;;5.97;;
16403;SDS011;8311;50.158;8.642;2022-08-27T03:29:26;10.55;;;6.35;;
16403;SDS011;8311;50.158;8.642;2022-08-27T03:32:20;11.38;;;6.75;;
16403;SDS011;8311;50.158;8.642;2022-08-27T03:35:13;11.82;;;6.95;;
16403;SDS011;8311;50.158;8.642;2022-08-27T03:38:08;11.68;;;6.40;;
16403;SDS011;8311;50.158;8.642;2022-08-27T03:41:01;12.27;;;6.78;;
16403;SDS011;8311;50.158;8.642;2022-08-27T03:43:55;11.10;;;6.43;;
16403;SDS011;8311;50.158;8.642;2022-08-27T03:46:56;12.00;;;5.82;;
16403;SDS011;8311;50.158;8.642;2022-08-27T03:49:59;14.63;;;6.25;;
16403;SDS011;8311;50.158;8.642;2022-08-27T03:52:56;9.88;;;6.05;;
16403;SDS011;8311;50.158;8.642;2022-08-27T03:55:50;12.95;;;6.82;;
16403;SDS011;8311;50.158;8.642;2022-08-27T03:58:43;10.45;;;6.22;;
16403;SDS011;8311;50.158;8.642;2022-08-27T04:01:36;8.98;;;5.55;;
16403;SDS011;8311;50.158;8.642;2022-08-27T04:04:30;11.10;;;6.20;;
16403;SDS011;8311;50.158;8.642;2022-08-27T04:07:24;10.02;;;6.60;;
16403;SDS011;8311;50.158;8.642;2022-08-27T04:10:17;12.32;;;6.57;;
16403;SDS011;8311;50.158;8.642;2022-08-27T04:13:10;10.55;;;5.97;;
16403;SDS011;8311;50.158;8.642;2022-08-27T04:16:03;9.95;;;5.93;;
16403;SDS011;8311;50.158;8.642;2022-08-27T04:18:57;10.35;;;5.70;;
16403;SDS011;8311;50.158;8.642;2022-08-27T04:21:51;12.82;;;5.88;;
16403;SDS011;8311;50.158;8.642;2022-08-27T04:24:45;9.13;;;5.57;;
16403;SDS011;8311;50.158;8.642;2022-08-27T04:27:39;10.05;;;5.45;;
16403;SDS011;8311;50.158;8.642;2022-08-27T04:30:32;9.45;;;5.57;;
16403;SDS011;8311;50.158;8.642;2022-08-27T04:33:29;10.65;;;5.80;;
16403;SDS011;8311;50.158;8.642;2022-08-27T04:36:23;14.45;;;5.78;;
16403;SDS011;8311;50.158;8.642;2022-08-27T04:39:17;9.43;;;5.60;;
16403;SDS011;8311;50.158;8.642;2022-08-27T04:42:11;7.75;;;5.50;;
16403;SDS011;8311;50.158;8.642;2022-08-27T04:45:04;11.88;;;5.85;;
16403;SDS011;8311;50.158;8.642;2022-08-27T04:47:58;9.15;;;5.60;;
16403;SDS011;8311;50.158;8.642;2022-08-27T04:50:51;8.25;;;5.13;;
16403;SDS011;8311;50.158;8.642;2022-08-27T04:53:45;10.70;;;5.90;;
16403;SDS011;8311;50.158;8.642;2022-08-27T04:56:40;10.27;;;5.63;;
16403;SDS011;8311;50.158;8.642;2022-08-27T04:59:33;9.80;;;5.00;;
16403;SDS011;8311;50.158;8.642;2022-08-27T05:02:27;9.70;;;5.88;;
16403;SDS011;8311;50.158;8.642;2022-08-27T05:05:20;12.25;;;5.60;;
16403;SDS011;8311;50.158;8.642;2022-08-27T05:08:14;9.13;;;5.45;;
16403;SDS011;8311;50.158;8.642;2022-08-27T05:11:09;11.30;;;5.65;;
16403;SDS011;8311;50.158;8.642;2022-08-27T05:14:06;7.88;;;5.22;;
16403;SDS011;8311;50.158;8.642;2022-08-27T05:17:01;7.63;;;4.93;;
16403;SDS011;8311;50.158;8.642;2022-08-27T05:19:54;9.43;;;5.43;;
16403;SDS011;8311;50.158;8.642;2022-08-27T05:22:47;8.48;;;5.32;;
16403;SDS011;8311;50.158;8.642;2022-08-27T05:25:44;6.90;;;4.57;;
16403;SDS011;8311;50.158;8.642;2022-08-27T05:28:38;8.55;;;5.22;;
16403;SDS011;8311;50.158;8.642;2022-08-27T05:31:32;9.32;;;5.30;;
16403;SDS011;8311;50.158;8.642;2022-08-27T05:34:26;7.45;;;5.15;;
16403;SDS011;8311;50.158;8.642;2022-08-27T05:37:21;10.88;;;5.07;;
16403;SDS011;8311;50.158;8.642;2022-08-27T05:40:14;7.85;;;4.57;;
16403;SDS011;8311;50.158;8.642;2022-08-27T05:43:07;8.65;;;5.07;;
16403;SDS011;8311;50.158;8.642;2022-08-27T05:46:02;7.18;;;4.93;;
16403;SDS011;8311;50.158;8.642;2022-08-27T05:48:58;8.30;;;4.32;;
16403;SDS011;8311;50.158;8.642;2022-08-27T05:51:52;11.68;;;5.40;;
16403;SDS011;8311;50.158;8.642;2022-08-27T05:54:45;10.70;;;5.03;;
16403;SDS011;8311;50.158;8.642;2022-08-27T05:57:39;8.88;;;5.50;;
16403;SDS011;8311;50.158;8.642;2022-08-27T06:00:32;13.45;;;5.78;;
16403;SDS011;8311;50.158;8.642;2022-08-27T06:03:50;8.13;;;4.65;;
16403;SDS011;8311;50.158;8.642;2022-08-27T06:06:47;8.65;;;5.30;;
16403;SDS011;8311;50.158;8.642;2022-08-27T06:09:40;11.27;;;5.05;;
16403;SDS011;8311;50.158;8.642;2022-08-27T06:12:33;7.82;;;4.82;;
16403;SDS011;8311;50.158;8.642;2022-08-27T06:15:26;8.07;;;3.97;;
16403;SDS011;8311;50.158;8.642;2022-08-27T06:18:19;12.07;;;4.80;;
16403;SDS011;8311;50.158;8.642;2022-08-27T06:21:14;8.60;;;4.95;;
16403;SDS011;8311;50.158;8.642;2022-08-27T06:24:15;7.55;;;5.10;;
16403;SDS011;8311;50.158;8.642;2022-08-27T06:27:10;7.40;;;5.32;;
16403;SDS011;8311;50.158;8.642;2022-08-27T06:30:06;9.13;;;4.80;;
16403;SDS011;8311;50.158;8.642;2022-08-27T06:33:03;6.93;;;4.85;;
16403;SDS011;8311;50.158;8.642;2022-08-27T06:35:57;8.65;;;4.85;;
16403;SDS011;8311;50.158;8.642;2022-08-27T06:38:51;9.43;;;5.38;;
16403;SDS011;8311;50.158;8.642;2022-08-27T06:41:46;11.20;;;5.03;;
16403;SDS011;8311;50.158;8.642;2022-08-27T06:44:40;9.07;;;4.57;;
16403;SDS011;8311;50.158;8.642;2022-08-27T06:47:34;6.03;;;4.32;;
16403;SDS011;8311;50.158;8.642;2022-08-27T06:50:27;12.00;;;4.72;;
16403;SDS011;8311;50.158;8.642;2022-08-27T06:53:20;21.15;;;6.32;;
16403;SDS011;8311;50.158;8.642;2022-08-27T06:56:15;15.40;;;5.40;;
16403;SDS011;8311;50.158;8.642;2022-08-27T06:59:11;14.15;;;5.70;;
16403;SDS011;8311;50.158;8.642;2022-08-27T07:02:06;18.77;;;6.35;;
16403;SDS011;8311;50.158;8.642;2022-08-27T07:04:59;14.18;;;5.38;;
16403;SDS011;8311;50.158;8.642;2022-08-27T07:07:53;11.88;;;5.43;;
16403;SDS011;8311;50.158;8.642;2022-08-27T07:10:46;14.73;;;5.43;;
16403;SDS011;8311;50.158;8.642;2022-08-27T07:13:40;11.85;;;4.80;;
16403;SDS011;8311;50.158;8.642;2022-08-27T07:16:35;14.70;;;5.43;;
16403;SDS011;8311;50.158;8.642;2022-08-27T07:19:31;13.35;;;4.30;;
16403;SDS011;8311;50.158;8.642;2022-08-27T07:22:31;9.50;;;5.03;;
16403;SDS011;8311;50.158;8.642;2022-08-27T07:25:25;11.70;;;5.07;;
16403;SDS011;8311;50.158;8.642;2022-08-27T07:28:18;12.70;;;4.82;;
16403;SDS011;8311;50.158;8.642;2022-08-27T07:31:12;8.82;;;4.43;;
16403;SDS011;8311;50.158;8.642;2022-08-27T07:34:09;11.20;;;4.90;;
16403;SDS011;8311;50.158;8.642;2022-08-27T07:37:02;9.25;;;4.78;;
16403;SDS011;8311;50.158;8.642;2022-08-27T07:39:55;6.57;;;4.03;;
16403;SDS011;8311;50.158;8.642;2022-08-27T07:42:48;7.78;;;4.07;;
16403;SDS011;8311;50.158;8.642;2022-08-27T07:46:00;11.55;;;4.47;;
16403;SDS011;8311;50.158;8.642;2022-08-27T07:48:54;8.95;;;4.50;;
16403;SDS011;8311;50.158;8.642;2022-08-27T07:51:50;8.02;;;4.20;;
16403;SDS011;8311;50.158;8.642;2022-08-27T07:54:43;5.57;;;3.50;;
16403;SDS011;8311;50.158;8.642;2022-08-27T07:57:36;8.88;;;4.80;;
16403;SDS011;8311;50.158;8.642;2022-08-27T08:00:29;8.43;;;4.32;;
16403;SDS011;8311;50.158;8.642;2022-08-27T08:03:23;5.93;;;4.00;;
16403;SDS011;8311;50.158;8.642;2022-08-27T08:06:17;8.00;;;4.40;;
16403;SDS011;8311;50.158;8.642;2022-08-27T08:09:11;7.97;;;4.30;;
16403;SDS011;8311;50.158;8.642;2022-08-27T08:12:04;5.72;;;3.53;;
16403;SDS011;8311;50.158;8.642;2022-08-27T08:14:57;6.28;;;3.75;;
16403;SDS011;8311;50.158;8.642;2022-08-27T08:17:51;5.97;;;3.92;;
16403;SDS011;8311;50.158;8.642;2022-08-27T08:20:44;9.00;;;3.97;;
16403;SDS011;8311;50.158;8.642;2022-08-27T08:23:49;6.95;;;3.75;;
16403;SDS011;8311;50.158;8.642;2022-08-27T08:26:44;6.35;;;3.80;;
16403;SDS011;8311;50.158;8.642;2022-08-27T08:29:38;7.68;;;3.63;;
16403;SDS011;8311;50.158;8.642;2022-08-27T08:32:31;5.15;;;3.67;;
16403;SDS011;8311;50.158;8.642;2022-08-27T08:35:25;6.88;;;3.70;;
16403;SDS011;8311;50.158;8.642;2022-08-27T08:38:29;6.55;;;3.65;;
16403;SDS011;8311;50.158;8.642;2022-08-27T08:41:29;5.57;;;3.38;;
16403;SDS011;8311;50.158;8.642;2022-08-27T08:44:33;6.53;;;3.55;;
16403;SDS011;8311;50.158;8.642;2022-08-27T08:47:31;4.90;;;3.30;;
16403;SDS011;8311;50.158;8.642;2022-08-27T08:50:33;4.55;;;3.40;;
16403;SDS011;8311;50.158;8.642;2022-08-27T08:53:34;6.55;;;3.50;;
16403;SDS011;8311;50.158;8.642;2022-08-27T08:56:34;5.50;;;3.05;;
16403;SDS011;8311;50.158;8.642;2022-08-27T08:59:35;6.22;;;3.92;;
16403;SDS011;8311;50.158;8.642;2022-08-27T09:02:31;5.53;;;3.15;;
16403;SDS011;8311;50.158;8.642;2022-08-27T09:05:24;5.13;;;3.42;;
16403;SDS011;8311;50.158;8.642;2022-08-27T09:08:19;4.55;;;3.10;;
16403;SDS011;8311;50.158;8.642;2022-08-27T09:11:31;4.82;;;3.10;;
16403;SDS011;8311;50.158;8.642;2022-08-27T09:14:33;4.78;;;3.00;;
16403;SDS011;8311;50.158;8.642;2022-08-27T09:17:36;5.75;;;3.22;;
16403;SDS011;8311;50.158;8.642;2022-08-27T09:20:30;5.07;;;3.45;;
16403;SDS011;8311;50.158;8.642;2022-08-27T09:23:28;5.88;;;3.58;;
16403;SDS011;8311;50.158;8.642;2022-08-27T09:26:27;4.45;;;3.20;;
16403;SDS011;8311;50.158;8.642;2022-08-27T09:29:24;7.25;;;3.50;;
16403;SDS011;8311;50.158;8.642;2022-08-27T09:32:22;4.78;;;3.08;;
16403;SDS011;8311;50.158;8.642;2022-08-27T09:35:17;5.32;;;3.40;;
16403;SDS011;8311;50.158;8.642;2022-08-27T09:38:17;7.13;;;3.17;;
16403;SDS011;8311;50.158;8.642;2022-08-27T09:41:20;7.68;;;3.80;;
16403;SDS011;8311;50.158;8.642;2022-08-27T09:44:19;7.38;;;3.70;;
16403;SDS011;8311;50.158;8.642;2022-08-27T09:47:13;4.18;;;2.95;;
16403;SDS011;8311;50.158;8.642;2022-08-27T09:50:09;4.75;;;3.38;;
16403;SDS011;8311;50.158;8.642;2022-08-27T09:53:02;4.93;;;3.35;;
16403;SDS011;8311;50.158;8.642;2022-08-27T09:55:56;4.28;;;2.90;;
16403;SDS011;8311;50.158;8.642;2022-08-27T09:58:52;5.03;;;3.30;;
16403;SDS011;8311;50.158;8.642;2022-08-27T10:01:49;3.90;;;3.03;;
16403;SDS011;8311;50.158;8.642;2022-08-27T10:04:45;4.93;;;3.40;;
16403;SDS011;8311;50.158;8.642;2022-08-27T10:07:45;5.30;;;3.20;;
16403;SDS011;8311;50.158;8.642;2022-08-27T10:10:46;6.05;;;2.83;;
16403;SDS011;8311;50.158;8.642;2022-08-27T10:13:49;4.88;;;3.25;;
16403;SDS011;8311;50.158;8.642;2022-08-27T10:16:49;4.18;;;2.88;;
16403;SDS011;8311;50.158;8.642;2022-08-27T10:19:55;4.63;;;3.40;;
16403;SDS011;8311;50.158;8.642;2022-08-27T10:22:57;4.88;;;3.45;;
16403;SDS011;8311;50.158;8.642;2022-08-27T10:26:03;5.38;;;3.47;;
16403;SDS011;8311;50.158;8.642;2022-08-27T10:29:04;4.72;;;3.08;;
16403;SDS011;8311;50.158;8.642;2022-08-27T10:32:07;6.18;;;3.15;;
16403;SDS011;8311;50.158;8.642;2022-08-27T10:35:12;4.70;;;3.45;;
16403;SDS011;8311;50.158;8.642;2022-08-27T10:38:14;5.63;;;3.20;;
16403;SDS011;8311;50.158;8.642;2022-08-27T10:41:14;5.43;;;3.35;;
16403;SDS011;8311;50.158;8.642;2022-08-27T10:50:54;5.55;;;3.38;;
16403;SDS011;8311;50.158;8.642;2022-08-27T10:53:56;4.13;;;3.00;;
16403;SDS011;8311;50.158;8.642;2022-08-27T10:56:54;4.47;;;2.83;;
16403;SDS011;8311;50.158;8.642;2022-08-27T11:00:12;6.97;;;2.95;;
16403;SDS011;8311;50.158;8.642;2022-08-27T11:03:09;4.97;;;3.33;;
16403;SDS011;8311;50.158;8.642;2022-08-27T11:06:08;3.50;;;2.65;;
16403;SDS011;8311;50.158;8.642;2022-08-27T11:09:11;5.45;;;3.17;;
16403;SDS011;8311;50.158;8.642;2022-08-27T11:12:09;4.45;;;3.20;;
16403;SDS011;8311;50.158;8.642;2022-08-27T11:15:08;5.43;;;3.08;;
16403;SDS011;8311;50.158;8.642;2022-08-27T11:18:06;5.05;;;3.10;;
16403;SDS011;8311;50.158;8.642;2022-08-27T11:21:04;4.05;;;3.08;;
16403;SDS011;8311;50.158;8.642;2022-08-27T11:24:09;4.38;;;2.95;;
16403;SDS011;8311;50.158;8.642;2022-08-27T11:27:15;4.88;;;3.00;;
16403;SDS011;8311;50.158;8.642;2022-08-27T11:30:17;5.60;;;3.30;;
16403;SDS011;8311;50.158;8.642;2022-08-27T11:33:16;4.55;;;3.05;;
16403;SDS011;8311;50.158;8.642;2022-08-27T11:36:19;6.53;;;3.78;;
16403;SDS011;8311;50.158;8.642;2022-08-27T11:39:31;5.43;;;3.28;;
16403;SDS011;8311;50.158;8.642;2022-08-27T11:42:43;5.53;;;3.47;;
16403;SDS011;8311;50.158;8.642;2022-08-27T11:45:49;4.45;;;2.60;;
16403;SDS011;8311;50.158;8.642;2022-08-27T11:48:54;5.43;;;3.22;;
16403;SDS011;8311;50.158;8.642;2022-08-27T11:51:54;4.90;;;2.92;;
16403;SDS011;8311;50.158;8.642;2022-08-27T11:54:56;5.78;;;3.15;;
16403;SDS011;8311;50.158;8.642;2022-08-27T11:58:05;4.93;;;2.80;;
16403;SDS011;8311;50.158;8.642;2022-08-27T12:01:01;5.07;;;2.90;;
16403;SDS011;8311;50.158;8.642;2022-08-27T12:04:06;3.88;;;2.72;;
16403;SDS011;8311;50.158;8.642;2022-08-27T12:07:23;3.60;;;2.80;;
16403;SDS011;8311;50.158;8.642;2022-08-27T12:10:25;4.20;;;3.10;;
16403;SDS011;8311;50.158;8.642;2022-08-27T12:13:27;4.72;;;3.25;;
16403;SDS011;8311;50.158;8.642;2022-08-27T12:16:29;4.50;;;2.75;;
16403;SDS011;8311;50.158;8.642;2022-08-27T12:19:39;4.65;;;3.17;;
16403;SDS011;8311;50.158;8.642;2022-08-27T12:22:42;4.00;;;2.95;;
16403;SDS011;8311;50.158;8.642;2022-08-27T12:26:13;3.80;;;2.85;;
16403;SDS011;8311;50.158;8.642;2022-08-27T12:29:19;3.40;;;2.60;;
16403;SDS011;8311;50.158;8.642;2022-08-27T12:32:23;4.43;;;3.03;;
16403;SDS011;8311;50.158;8.642;2022-08-27T12:35:19;4.43;;;3.13;;
16403;SDS011;8311;50.158;8.642;2022-08-27T12:38:15;5.75;;;3.63;;
16403;SDS011;8311;50.158;8.642;2022-08-27T12:41:10;4.38;;;2.70;;
16403;SDS011;8311;50.158;8.642;2022-08-27T12:44:21;3.88;;;2.78;;
16403;SDS011;8311;50.158;8.642;2022-08-27T12:47:16;3.97;;;3.08;;
16403;SDS011;8311;50.158;8.642;2022-08-27T12:50:10;3.95;;;3.15;;
16403;SDS011;8311;50.158;8.642;2022-08-27T12:53:17;3.47;;;2.60;;
16403;SDS011;8311;50.158;8.642;2022-08-27T12:56:31;5.85;;;3.15;;
16403;SDS011;8311;50.158;8.642;2022-08-27T12:59:43;4.65;;;3.13;;
16403;SDS011;8311;50.158;8.642;2022-08-27T13:03:08;3.65;;;2.80;;
16403;SDS011;8311;50.158;8.642;2022-08-27T13:06:13;4.20;;;3.17;;
16403;SDS011;8311;50.158;8.642;2022-08-27T13:09:09;3.92;;;2.67;;
16403;SDS011;8311;50.158;8.642;2022-08-27T13:12:06;4.18;;;3.35;;
16403;SDS011;8311;50.158;8.642;2022-08-27T13:15:08;5.90;;;3.30;;
16403;SDS011;8311;50.158;8.642;2022-08-27T13:18:06;6.00;;;3.13;;
16403;SDS011;8311;50.158;8.642;2022-08-27T13:21:03;5.47;;;3.58;;
16403;SDS011;8311;50.158;8.642;2022-08-27T13:24:04;4.45;;;3.08;;
16403;SDS011;8311;50.158;8.642;2022-08-27T13:26:58;5.40;;;3.80;;
16403;SDS011;8311;50.158;8.642;2022-08-27T13:29:55;4.68;;;3.35;;
16403;SDS011;8311;50.158;8.642;2022-08-27T13:32:53;5.47;;;3.55;;
16403;SDS011;8311;50.158;8.642;2022-08-27T13:35:47;4.07;;;2.95;;
16403;SDS011;8311;50.158;8.642;2022-08-27T13:38:42;4.50;;;3.17;;
16403;SDS011;8311;50.158;8.642;2022-08-27T13:41:40;6.80;;;3.63;;
16403;SDS011;8311;50.158;8.642;2022-08-27T13:44:34;5.60;;;3.42;;
16403;SDS011;8311;50.158;8.642;2022-08-27T13:47:38;4.72;;;3.17;;
16403;SDS011;8311;50.158;8.642;2022-08-27T13:50:35;5.15;;;3.50;;
16403;SDS011;8311;50.158;8.642;2022-08-27T13:53:29;5.60;;;3.20;;
16403;SDS011;8311;50.158;8.642;2022-08-27T13:56:54;5.25;;;3.53;;
16403;SDS011;8311;50.158;8.642;2022-08-27T13:59:53;4.93;;;3.70;;
16403;SDS011;8311;50.158;8.642;2022-08-27T14:02:49;5.50;;;3.47;;
16403;SDS011;8311;50.158;8.642;2022-08-27T14:05:47;4.75;;;3.10;;
16403;SDS011;8311;50.158;8.642;2022-08-27T14:08:40;4.20;;;3.28;;
16403;SDS011;8311;50.158;8.642;2022-08-27T14:11:33;4.57;;;3.40;;
16403;SDS011;8311;50.158;8.642;2022-08-27T14:14:27;5.03;;;3.10;;
16403;SDS011;8311;50.158;8.642;2022-08-27T14:17:22;3.92;;;2.90;;
16403;SDS011;8311;50.158;8.642;2022-08-27T14:20:21;4.70;;;3.30;;
16403;SDS011;8311;50.158;8.642;2022-08-27T14:23:15;5.60;;;2.80;;
16403;SDS011;8311;50.158;8.642;2022-08-27T14:26:08;4.85;;;3.10;;
16403;SDS011;8311;50.158;8.642;2022-08-27T14:29:02;5.47;;;3.45;;
16403;SDS011;8311;50.158;8.642;2022-08-27T14:32:02;4.72;;;3.00;;
16403;SDS011;8311;50.158;8.642;2022-08-27T14:34:57;4.45;;;3.42;;
16403;SDS011;8311;50.158;8.642;2022-08-27T14:37:52;3.65;;;2.90;;
16403;SDS011;8311;50.158;8.642;2022-08-27T14:40:46;4.72;;;3.38;;
16403;SDS011;8311;50.158;8.642;2022-08-27T14:43:43;4.50;;;3.30;;
16403;SDS011;8311;50.158;8.642;2022-08-27T14:46:40;5.00;;;3.53;;
16403;SDS011;8311;50.158;8.642;2022-08-27T14:49:35;3.75;;;2.95;;
16403;SDS011;8311;50.158;8.642;2022-08-27T14:52:29;4.53;;;3.15;;
16403;SDS011;8311;50.158;8.642;2022-08-27T14:55:24;4.30;;;3.10;;
16403;SDS011;8311;50.158;8.642;2022-08-27T14:58:17;4.53;;;3.55;;
16403;SDS011;8311;50.158;8.642;2022-08-27T15:01:11;4.95;;;3.40;;
16403;SDS011;8311;50.158;8.642;2022-08-27T15:04:05;5.20;;;3.67;;
16403;SDS011;8311;50.158;8.642;2022-08-27T15:06:59;4.38;;;3.03;;
16403;SDS011;8311;50.158;8.642;2022-08-27T15:09:52;3.78;;;2.80;;
16403;SDS011;8311;50.158;8.642;2022-08-27T15:12:47;5.00;;;3.30;;
16403;SDS011;8311;50.158;8.642;2022-08-27T15:15:49;3.72;;;2.97;;
16403;SDS011;8311;50.158;8.642;2022-08-27T15:18:43;4.63;;;3.00;;
16403;SDS011;8311;50.158;8.642;2022-08-27T15:22:02;4.65;;;3.38;;
16403;SDS011;8311;50.158;8.642;2022-08-27T15:25:06;4.47;;;3.17;;
16403;SDS011;8311;50.158;8.642;2022-08-27T15:28:03;4.20;;;2.78;;
16403;SDS011;8311;50.158;8.642;2022-08-27T15:30:58;4.70;;;3.30;;
16403;SDS011;8311;50.158;8.642;2022-08-27T15:33:51;5.18;;;3.50;;
16403;SDS011;8311;50.158;8.642;2022-08-27T15:36:45;4.40;;;3.22;;
16403;SDS011;8311;50.158;8.642;2022-08-27T15:39:39;4.18;;;3.30;;
16403;SDS011;8311;50.158;8.642;2022-08-27T15:42:32;5.38;;;3.40;;
16403;SDS011;8311;50.158;8.642;2022-08-27T15:45:27;4.07;;;3.05;;
16403;SDS011;8311;50.158;8.642;2022-08-27T15:48:21;4.10;;;2.90;;
16403;SDS011;8311;50.158;8.642;2022-08-27T15:51:15;4.15;;;3.10;;
16403;SDS011;8311;50.158;8.642;2022-08-27T15:54:13;5.10;;;3.40;;
16403;SDS011;8311;50.158;8.642;2022-08-27T15:57:07;4.28;;;3.10;;
16403;SDS011;8311;50.158;8.642;2022-08-27T15:59:59;4.63;;;3.28;;
16403;SDS011;8311;50.158;8.642;2022-08-27T16:02:54;4.60;;;3.00;;
16403;SDS011;8311;50.158;8.642;2022-08-27T16:05:48;4.63;;;3.33;;
16403;SDS011;8311;50.158;8.642;2022-08-27T16:08:41;4.20;;;3.13;;
16403;SDS011;8311;50.158;8.642;2022-08-27T16:11:35;4.38;;;3.28;;
16403;SDS011;8311;50.158;8.642;2022-08-27T16:14:28;4.85;;;3.95;;
16403;SDS011;8311;50.158;8.642;2022-08-27T16:17:21;5.43;;;3.50;;
16403;SDS011;8311;50.158;8.642;2022-08-27T16:20:22;4.75;;;3.15;;
16403;SDS011;8311;50.158;8.642;2022-08-27T16:23:16;4.38;;;3.45;;
16403;SDS011;8311;50.158;8.642;2022-08-27T16:26:10;4.30;;;2.97;;
16403;SDS011;8311;50.158;8.642;2022-08-27T16:29:04;4.72;;;3.70;;
16403;SDS011;8311;50.158;8.642;2022-08-27T16:32:00;4.45;;;3.03;;
16403;SDS011;8311;50.158;8.642;2022-08-27T16:34:54;4.53;;;3.22;;
16403;SDS011;8311;50.158;8.642;2022-08-27T16:37:49;4.22;;;3.53;;
16403;SDS011;8311;50.158;8.642;2022-08-27T16:40:43;4.13;;;3.38;;
16403;SDS011;8311;50.158;8.642;2022-08-27T16:43:40;5.03;;;3.72;;
16403;SDS011;8311;50.158;8.642;2022-08-27T16:46:33;4.45;;;3.08;;
16403;SDS011;8311;50.158;8.642;2022-08-27T16:49:27;5.18;;;3.40;;
16403;SDS011;8311;50.158;8.642;2022-08-27T16:52:37;5.85;;;2.90;;
16403;SDS011;8311;50.158;8.642;2022-08-27T16:55:35;4.22;;;3.00;;
16403;SDS011;8311;50.158;8.642;2022-08-27T16:58:30;3.70;;;2.80;;
16403;SDS011;8311;50.158;8.642;2022-08-27T17:01:23;4.47;;;3.30;;
16403;SDS011;8311;50.158;8.642;2022-08-27T17:04:17;4.88;;;3.05;;
16403;SDS011;8311;50.158;8.642;2022-08-27T17:07:22;4.28;;;2.92;;
16403;SDS011;8311;50.158;8.642;2022-08-27T17:10:16;5.82;;;3.35;;
16403;SDS011;8311;50.158;8.642;2022-08-27T17:13:12;5.13;;;3.58;;
16403;SDS011;8311;50.158;8.642;2022-08-27T17:16:06;5.82;;;3.70;;
16403;SDS011;8311;50.158;8.642;2022-08-27T17:19:01;5.95;;;3.60;;
16403;SDS011;8311;50.158;8.642;2022-08-27T17:21:55;5.00;;;3.40;;
16403;SDS011;8311;50.158;8.642;2022-08-27T17:24:53;5.70;;;2.88;;
16403;SDS011;8311;50.158;8.642;2022-08-27T17:27:47;4.50;;;3.13;;
16403;SDS011;8311;50.158;8.642;2022-08-27T17:30:41;5.18;;;3.35;;
16403;SDS011;8311;50.158;8.642;2022-08-27T17:33:36;5.60;;;3.35;;
16403;SDS011;8311;50.158;8.642;2022-08-27T17:36:31;5.25;;;3.28;;
16403;SDS011;8311;50.158;8.642;2022-08-27T17:39:24;4.32;;;3.20;;
16403;SDS011;8311;50.158;8.642;2022-08-27T17:42:19;4.35;;;3.00;;
16403;SDS011;8311;50.158;8.642;2022-08-27T17:45:11;5.18;;;2.90;;
16403;SDS011;8311;50.158;8.642;2022-08-27T17:48:08;4.82;;;2.85;;
16403;SDS011;8311;50.158;8.642;2022-08-27T17:51:09;5.57;;;3.50;;
16403;SDS011;8311;50.158;8.642;2022-08-27T17:54:03;4.20;;;3.05;;
16403;SDS011;8311;50.158;8.642;2022-08-27T17:56:58;5.30;;;3.30;;
16403;SDS011;8311;50.158;8.642;2022-08-27T17:59:52;4.22;;;2.50;;
16403;SDS011;8311;50.158;8.642;2022-08-27T18:02:47;4.20;;;2.92;;
16403;SDS011;8311;50.158;8.642;2022-08-27T18:05:44;3.40;;;2.65;;